Time;durP1;ratioP1;P1;durP2;ratioP2;P2;SDS_P1;SDS_P2;PMS_P1;PMS_P2;Temp;Humidity;BMP_temperature;BMP_pressure;BME280_temperature;BME280_humidity;BME280_pressure;Samples;Min_cycle;Max_cycle;Signal;HPM_P1;HPM_P2
2022/01/04 00:02:17;;;;;;;1.65;0.82;;;;;;;8.13;85.27;96429.00;5026727;28;20052;-63
2022/01/04 00:04:44;;;;;;;1.58;0.80;;;;;;;8.12;85.29;96424.69;5029775;28;20069;-62
2022/01/04 00:07:11;;;;;;;3.10;0.80;;;;;;;8.13;85.37;96419.03;5030403;28;20046;-62
2022/01/04 00:09:41;;;;;;;3.58;1.17;;;;;;;8.04;85.72;96423.28;5026933;28;20045;-63
2022/01/04 00:14:55;;;;;;;2.38;0.50;;;;;;;8.05;86.19;96403.34;5008355;28;20048;-62
2022/01/04 00:17:22;;;;;;;2.67;0.73;;;;;;;8.05;86.29;96400.63;5027567;28;20548;-62
2022/01/04 00:19:49;;;;;;;1.15;0.63;;;;;;;8.00;86.52;96395.22;5027266;28;20045;-62
2022/01/04 00:22:15;;;;;;;3.70;1.00;;;;;;;7.97;86.32;96385.78;5027825;28;20041;-63
2022/01/04 00:24:42;;;;;;;1.85;0.52;;;;;;;7.94;86.48;96389.81;5027460;28;20052;-63
2022/01/04 00:27:08;;;;;;;4.22;1.10;;;;;;;8.03;86.23;96392.81;5025520;28;20045;-62
2022/01/04 00:29:35;;;;;;;1.80;0.60;;;;;;;7.99;86.40;96380.91;5027856;28;20045;-66
2022/01/04 00:32:02;;;;;;;1.70;0.80;;;;;;;7.96;86.83;96383.34;5027278;28;20040;-63
2022/01/04 00:34:29;;;;;;;2.97;1.00;;;;;;;7.96;86.93;96383.34;5027657;28;20050;-62
2022/01/04 00:36:55;;;;;;;1.60;0.80;;;;;;;7.98;86.82;96370.41;5027247;28;20057;-62
2022/01/04 00:39:22;;;;;;;2.17;1.15;;;;;;;7.99;86.80;96370.13;5026681;28;20033;-63
2022/01/04 00:41:48;;;;;;;1.33;0.60;;;;;;;7.96;87.10;96373.34;5027226;28;20045;-63
2022/01/04 00:44:15;;;;;;;1.40;0.80;;;;;;;7.91;87.18;96357.97;5026895;28;20041;-62
2022/01/04 00:46:41;;;;;;;1.10;0.65;;;;;;;7.88;87.46;96355.78;5026885;28;20091;-63
2022/01/04 00:49:11;;;;;;;1.60;0.70;;;;;;;7.91;87.21;96351.75;5027303;28;20046;-63
2022/01/04 00:51:43;;;;;;;1.63;0.70;;;;;;;7.93;87.25;96344.22;5026469;28;20049;-63
2022/01/04 00:54:11;;;;;;;3.30;0.90;;;;;;;7.92;87.39;96347.97;5026655;28;20049;-62
2022/01/04 00:56:38;;;;;;;2.22;0.80;;;;;;;7.88;87.51;96338.78;5026658;28;20056;-63
2022/01/04 00:59:04;;;;;;;3.47;0.98;;;;;;;7.86;88.22;96338.25;5025858;28;20052;-63
2022/01/04 01:01:33;;;;;;;2.58;0.77;;;;;;;7.85;87.80;96323.94;5027077;28;20094;-62
2022/01/04 01:04:00;;;;;;;2.28;0.80;;;;;;;7.81;87.72;96320.97;5026878;28;20095;-62
2022/01/04 01:06:26;;;;;;;3.47;1.38;;;;;;;7.81;87.89;96309.38;5030931;28;20041;-63
2022/01/04 01:08:53;;;;;;;3.10;0.93;;;;;;;7.87;87.54;96308.34;5025795;28;20045;-63
2022/01/04 01:11:20;;;;;;;1.83;1.02;;;;;;;7.88;87.55;96301.06;5026136;28;20044;-62
2022/01/04 01:13:47;;;;;;;2.42;0.90;;;;;;;7.91;87.20;96292.47;5034246;28;20037;-63
2022/01/04 01:16:14;;;;;;;2.35;0.80;;;;;;;7.85;87.60;96285.44;5045863;28;20063;-62
2022/01/04 01:18:41;;;;;;;2.25;0.93;;;;;;;7.84;87.63;96291.88;5046168;28;20049;-63
2022/01/04 01:21:08;;;;;;;2.47;1.00;;;;;;;7.81;87.62;96294.03;5045791;28;20063;-63
2022/01/04 01:23:36;;;;;;;2.47;1.20;;;;;;;7.79;87.79;96289.97;5046414;28;20451;-63
2022/01/04 01:26:05;;;;;;;2.35;0.93;;;;;;;7.79;88.00;96281.88;5046092;28;20063;-63
2022/01/04 01:28:34;;;;;;;3.88;1.20;;;;;;;7.79;87.88;96276.50;5046103;28;20055;-63
2022/01/04 01:31:05;;;;;;;2.83;0.90;;;;;;;7.77;87.78;96267.84;5044531;28;20048;-63
2022/01/04 01:33:32;;;;;;;4.38;1.05;;;;;;;7.79;87.97;96257.63;5026245;28;20095;-63
2022/01/04 01:35:59;;;;;;;2.35;0.88;;;;;;;7.85;87.58;96245.78;5026138;28;20072;-63
2022/01/04 01:38:26;;;;;;;3.33;0.80;;;;;;;7.83;87.63;96237.19;5022493;28;20050;-63
2022/01/04 01:40:53;;;;;;;1.50;0.98;;;;;;;7.72;88.15;96230.94;5023413;28;20040;-62
2022/01/04 01:43:20;;;;;;;2.20;1.00;;;;;;;7.82;87.56;96227.47;5026070;28;20043;-62
2022/01/04 01:45:47;;;;;;;2.88;1.15;;;;;;;7.83;87.24;96210.22;5025091;28;20049;-62
2022/01/04 01:48:14;;;;;;;2.90;0.90;;;;;;;7.75;87.68;96197.25;5026270;28;20479;-63
2022/01/04 01:50:40;;;;;;;3.28;0.70;;;;;;;7.72;87.75;96200.47;5025670;28;20053;-62
2022/01/04 01:53:08;;;;;;;2.53;0.82;;;;;;;7.84;86.88;96206.44;5025910;28;20049;-63
2022/01/04 01:55:34;;;;;;;1.55;1.05;;;;;;;7.79;87.31;96198.34;5025860;28;20432;-63
2022/01/04 01:58:01;;;;;;;3.22;0.85;;;;;;;7.84;87.21;96195.66;5024837;28;20102;-63
2022/01/04 02:00:29;;;;;;;1.85;0.98;;;;;;;7.95;86.48;96191.13;5025553;28;20041;-63
2022/01/04 02:02:57;;;;;;;1.73;0.80;;;;;;;7.86;86.80;96182.75;5036421;28;20530;-63
2022/01/04 02:05:24;;;;;;;2.08;0.80;;;;;;;7.89;86.62;96170.63;5030791;28;20440;-63
2022/01/04 02:07:52;;;;;;;1.50;0.60;;;;;;;7.91;86.43;96173.88;5025025;28;20774;-63
2022/01/04 02:10:19;;;;;;;1.48;0.77;;;;;;;7.81;86.92;96166.53;5032582;28;20056;-63
2022/01/04 02:12:47;;;;;;;2.70;0.90;;;;;;;7.73;86.90;96157.09;5045711;28;20496;-63
2022/01/04 02:15:17;;;;;;;2.95;0.90;;;;;;;7.67;87.33;96153.56;5041852;28;20049;-63
2022/01/04 02:17:44;;;;;;;2.03;0.90;;;;;;;7.66;87.68;96154.66;5044946;28;20412;-63
2022/01/04 02:20:12;;;;;;;2.65;1.05;;;;;;;7.66;87.90;96146.56;5045562;28;20045;-63
2022/01/04 02:22:39;;;;;;;1.75;0.95;;;;;;;7.65;87.71;96126.09;5045166;28;20042;-63
2022/01/04 02:25:07;;;;;;;1.20;0.75;;;;;;;7.68;87.47;96130.94;5045584;28;20037;-63
2022/01/04 02:27:36;;;;;;;2.30;1.10;;;;;;;7.75;87.26;96117.25;5044916;28;20052;-62
2022/01/04 02:30:06;;;;;;;3.30;1.00;;;;;;;7.79;87.13;96118.34;5045387;28;20045;-62
2022/01/04 02:32:33;;;;;;;1.83;0.90;;;;;;;7.89;86.60;96112.13;5033891;28;20045;-62
2022/01/04 02:35:00;;;;;;;2.78;0.88;;;;;;;7.96;86.29;96097.63;5025584;28;20107;-63
2022/01/04 02:37:27;;;;;;;3.35;1.20;;;;;;;7.91;86.58;96093.00;5029197;28;20449;-62
2022/01/04 02:39:54;;;;;;;1.63;0.80;;;;;;;7.99;86.08;96079.00;5027816;28;20053;-62
2022/01/04 02:42:22;;;;;;;2.00;1.00;;;;;;;8.00;85.82;96060.97;5029554;28;20513;-63
2022/01/04 02:44:49;;;;;;;3.03;1.05;;;;;;;8.03;85.81;96068.50;5028927;28;20053;-63
2022/01/04 02:47:16;;;;;;;2.38;1.10;;;;;;;7.96;86.82;96071.44;5028687;28;20448;-63
2022/01/04 02:49:43;;;;;;;4.60;1.00;;;;;;;7.88;86.61;96053.09;5029427;28;20060;-63
2022/01/04 02:52:10;;;;;;;3.65;1.00;;;;;;;7.90;86.37;96059.88;5028401;28;20049;-63
2022/01/04 02:54:37;;;;;;;2.08;1.00;;;;;;;7.87;86.60;96055.00;5028596;28;20049;-63
2022/01/04 02:57:04;;;;;;;3.78;1.00;;;;;;;7.86;86.76;96056.09;5028663;28;20052;-63
2022/01/04 02:59:30;;;;;;;3.10;1.27;;;;;;;7.90;86.62;96049.09;5029405;28;20505;-62
2022/01/04 03:01:57;;;;;;;3.00;1.08;;;;;;;7.85;86.92;96050.97;5029368;28;20038;-63
2022/01/04 03:04:24;;;;;;;2.88;1.00;;;;;;;7.89;86.85;96052.06;5028887;28;20497;-63
2022/01/04 03:06:51;;;;;;;2.58;1.33;;;;;;;7.92;86.77;96044.22;5033732;28;20052;-63
2022/01/04 03:09:17;;;;;;;3.25;1.35;;;;;;;7.87;86.67;96046.09;5028778;28;20049;-63
2022/01/04 03:11:44;;;;;;;3.25;1.10;;;;;;;7.87;87.21;96044.22;5028294;28;20049;-63
2022/01/04 03:14:11;;;;;;;3.10;1.20;;;;;;;7.83;87.57;96037.75;5028224;28;20049;-64
2022/01/04 03:16:37;;;;;;;1.80;1.17;;;;;;;7.85;87.47;96035.59;5028001;28;20045;-62
2022/01/04 03:19:07;;;;;;;3.15;1.45;;;;;;;7.87;87.02;96030.75;5029241;28;20647;-63
2022/01/04 03:21:35;;;;;;;2.75;1.20;;;;;;;7.81;87.52;96018.34;5028845;28;20650;-62
2022/01/04 03:24:03;;;;;;;2.28;1.02;;;;;;;7.80;87.61;96014.03;5028494;28;20611;-63
2022/01/04 03:26:30;;;;;;;3.38;1.60;;;;;;;7.79;87.96;96002.47;5027760;28;20049;-62
2022/01/04 03:28:58;;;;;;;3.85;1.48;;;;;;;7.77;88.03;96003.78;5028008;28;20041;-62
2022/01/04 03:31:26;;;;;;;2.30;1.38;;;;;;;7.71;88.16;95994.91;5029063;28;20042;-62
2022/01/04 03:33:53;;;;;;;3.53;1.20;;;;;;;7.65;88.79;95987.88;5008702;28;20041;-63
2022/01/04 03:36:21;;;;;;;2.20;1.60;;;;;;;7.66;88.30;95982.22;5008854;28;20050;-63
2022/01/04 03:38:48;;;;;;;3.58;1.52;;;;;;;7.70;88.79;95968.22;5008518;28;20049;-63
2022/01/04 03:41:17;;;;;;;3.28;1.65;;;;;;;7.70;88.38;95973.63;5026987;28;20424;-63
2022/01/04 03:43:44;;;;;;;2.92;1.30;;;;;;;7.83;87.56;95970.38;5028777;28;20037;-63
2022/01/04 03:46:11;;;;;;;3.67;1.48;;;;;;;7.84;87.69;95957.72;5027217;28;20500;-62
2022/01/04 03:48:38;;;;;;;4.82;1.60;;;;;;;7.85;87.60;95948.56;5027760;28;20049;-63
2022/01/04 03:51:05;;;;;;;2.13;1.13;;;;;;;7.86;87.38;95951.00;5027956;28;20164;-62
2022/01/04 03:53:32;;;;;;;2.95;1.20;;;;;;;7.96;86.98;95943.97;5027836;28;20052;-63
2022/01/04 03:55:59;;;;;;;2.38;1.20;;;;;;;7.94;87.47;95942.38;5030445;28;20042;-64
2022/01/04 03:58:26;;;;;;;2.00;1.00;;;;;;;8.05;86.88;95936.97;5047578;28;20462;-63
2022/01/04 04:00:52;;;;;;;2.83;1.05;;;;;;;8.02;87.04;95932.09;5035329;28;20038;-61
2022/01/04 04:03:19;;;;;;;2.30;1.00;;;;;;;8.06;87.05;95923.22;5028285;28;20493;-62
2022/01/04 04:05:46;;;;;;;4.18;1.20;;;;;;;8.15;86.28;95923.47;5031634;28;20045;-63
2022/01/04 04:08:12;;;;;;;4.53;1.50;;;;;;;8.15;86.79;95912.66;5027916;28;20095;-63
2022/01/04 04:10:39;;;;;;;3.00;1.20;;;;;;;8.12;86.47;95907.03;5027649;28;20048;-63
2022/01/04 04:13:05;;;;;;;3.03;1.00;;;;;;;8.14;86.52;95905.66;5027730;28;20095;-62
2022/01/04 04:15:32;;;;;;;1.90;1.02;;;;;;;8.11;87.09;95902.72;5027129;28;20038;-63
2022/01/04 04:17:59;;;;;;;2.60;0.77;;;;;;;8.14;86.93;95900.28;5033880;28;20044;-62
2022/01/04 04:20:26;;;;;;;2.85;0.93;;;;;;;8.16;86.76;95889.22;5047330;28;20037;-62
2022/01/04 04:22:53;;;;;;;2.85;1.00;;;;;;;8.10;87.12;95885.72;5046977;28;20053;-62
2022/01/04 04:25:20;;;;;;;2.92;0.90;;;;;;;8.07;87.38;95875.47;5047625;28;20048;-62
2022/01/04 04:27:46;;;;;;;2.78;1.10;;;;;;;8.10;87.22;95872.25;5046905;28;20037;-62
2022/01/04 04:30:13;;;;;;;2.45;1.10;;;;;;;8.12;87.38;95869.28;5040805;28;20049;-63
2022/01/04 04:32:40;;;;;;;1.92;0.93;;;;;;;8.21;86.76;95867.63;5027769;28;20053;-62
2022/01/04 04:35:07;;;;;;;1.38;0.80;;;;;;;8.22;86.79;95868.47;5026689;28;20064;-63
2022/01/04 04:37:34;;;;;;;1.90;0.80;;;;;;;8.20;87.15;95864.16;5027099;28;20635;-63
2022/01/04 04:40:01;;;;;;;3.67;1.30;;;;;;;8.19;87.11;95859.03;5026915;28;20421;-62
2022/01/04 04:42:27;;;;;;;1.73;0.77;;;;;;;8.15;87.51;95850.66;5027176;28;20124;-62
2022/01/04 04:44:58;;;;;;;2.60;0.90;;;;;;;8.20;87.42;95847.16;5027311;28;20045;-63
2022/01/04 04:47:25;;;;;;;3.30;1.05;;;;;;;8.17;87.54;95851.22;5008388;28;20430;-62
2022/01/04 04:49:53;;;;;;;1.48;0.77;;;;;;;8.20;87.36;95845.28;5026700;28;20045;-62
2022/01/04 04:52:20;;;;;;;2.33;0.90;;;;;;;8.24;87.21;95852.81;5026431;28;20713;-62
2022/01/04 04:54:47;;;;;;;1.92;0.90;;;;;;;8.31;86.94;95837.97;5025950;28;20048;-62
2022/01/04 04:57:15;;;;;;;2.40;0.65;;;;;;;8.29;87.03;95826.63;5025937;28;20050;-62
2022/01/04 04:59:41;;;;;;;2.13;0.98;;;;;;;8.28;87.34;95822.31;5025982;28;20575;-62
2022/01/04 05:02:08;;;;;;;1.70;0.70;;;;;;;8.28;87.44;95824.19;5026663;28;20052;-62
2022/01/04 05:04:35;;;;;;;1.75;0.70;;;;;;;8.30;87.41;95819.34;5026558;28;20074;-62
2022/01/04 05:07:03;;;;;;;0.95;0.57;;;;;;;8.30;87.56;95811.25;5030858;28;20550;-62
2022/01/04 05:09:29;;;;;;;1.85;0.70;;;;;;;8.30;87.59;95813.97;5026948;28;20091;-63
2022/01/04 05:11:56;;;;;;;2.15;0.70;;;;;;;8.34;87.66;95804.25;5025807;28;20051;-62
2022/01/04 05:14:23;;;;;;;1.27;0.70;;;;;;;8.38;87.42;95799.91;5026456;28;20049;-61
2022/01/04 05:16:50;;;;;;;1.90;0.70;;;;;;;8.25;88.21;95798.59;5025825;28;20049;-62
2022/01/04 05:19:17;;;;;;;1.67;0.80;;;;;;;8.22;88.39;95795.66;5027017;28;20073;-63
2022/01/04 05:21:44;;;;;;;0.73;0.40;;;;;;;8.28;88.20;95791.84;5026416;28;20710;-63
2022/01/04 05:24:11;;;;;;;2.13;0.70;;;;;;;8.25;88.29;95787.81;5026266;28;20042;-63
2022/01/04 05:26:38;;;;;;;1.25;0.80;;;;;;;8.21;88.75;95775.97;5026448;28;20045;-62
2022/01/04 05:29:05;;;;;;;2.17;0.75;;;;;;;8.20;88.83;95783.25;5025685;28;20049;-63
2022/01/04 05:31:31;;;;;;;3.00;0.70;;;;;;;8.18;88.87;95771.13;5026628;28;20053;-63
2022/01/04 05:33:58;;;;;;;1.30;0.75;;;;;;;8.16;88.88;95754.44;5026100;28;20038;-63
2022/01/04 05:36:24;;;;;;;4.03;0.60;;;;;;;8.14;89.31;95757.38;5025967;28;20413;-62
2022/01/04 05:38:51;;;;;;;1.95;0.77;;;;;;;8.18;88.96;95749.56;5026553;28;20052;-63
2022/01/04 05:41:18;;;;;;;2.58;1.13;;;;;;;8.25;88.78;95741.19;5025192;28;20037;-63
2022/01/04 05:43:46;;;;;;;1.73;0.80;;;;;;;8.22;89.08;95744.44;5025844;28;20116;-62
2022/01/04 05:46:13;;;;;;;0.80;0.50;;;;;;;8.25;89.19;95744.66;5025037;28;20049;-63
2022/01/04 05:48:39;;;;;;;1.60;0.70;;;;;;;8.25;89.00;95746.59;5024980;28;20046;-63
2022/01/04 05:51:06;;;;;;;0.95;0.63;;;;;;;8.28;89.26;95748.69;5024421;28;20045;-62
2022/01/04 05:53:33;;;;;;;1.38;0.60;;;;;;;8.25;89.20;95736.59;5024943;28;20045;-62
2022/01/04 05:56:00;;;;;;;1.25;0.60;;;;;;;8.28;89.02;95727.13;5025902;28;20087;-63
2022/01/04 05:58:26;;;;;;;0.93;0.60;;;;;;;8.37;88.67;95730.06;5024378;28;20050;-63
2022/01/04 06:00:53;;;;;;;0.88;0.50;;;;;;;8.36;89.06;95717.66;5025599;28;20537;-62
2022/01/04 06:03:20;;;;;;;1.67;0.60;;;;;;;8.40;88.84;95711.41;5025259;28;20052;-62
2022/01/04 06:05:47;;;;;;;1.42;0.68;;;;;;;8.43;88.76;95715.44;5021234;28;20072;-62
2022/01/04 06:08:14;;;;;;;1.60;0.70;;;;;;;8.43;88.80;95715.44;5014473;28;20513;-63
2022/01/04 06:10:43;;;;;;;1.70;0.95;;;;;;;8.38;89.11;95705.50;5017029;28;20465;-62
2022/01/04 06:15:40;;;;;;;0.85;0.50;;;;;;;8.41;89.19;95701.44;5016953;28;20041;-62
2022/01/04 06:18:06;;;;;;;1.17;0.57;;;;;;;8.42;89.08;95695.78;5020581;28;20045;-63
2022/01/04 06:20:35;;;;;;;1.67;0.70;;;;;;;8.48;88.94;95698.44;5015851;28;20052;-63
2022/01/04 06:23:02;;;;;;;1.20;0.52;;;;;;;8.53;88.72;95687.63;5015654;28;20041;-63
2022/01/04 06:25:28;;;;;;;1.52;0.77;;;;;;;8.46;89.14;95675.25;5014387;28;20137;-63
2022/01/04 06:27:56;;;;;;;1.73;0.70;;;;;;;8.48;88.91;95671.47;5020612;28;20048;-63
2022/01/04 06:30:23;;;;;;;1.77;0.73;;;;;;;8.44;89.41;95668.53;5014200;28;20042;-64
2022/01/04 06:32:50;;;;;;;1.55;0.80;;;;;;;8.35;90.15;95673.69;5022456;28;20073;-62
2022/01/04 06:35:17;;;;;;;0.93;0.65;;;;;;;8.35;89.80;95660.22;5017242;28;20073;-62
2022/01/04 06:37:47;;;;;;;3.70;0.80;;;;;;;8.38;89.97;95650.75;5016074;28;20054;-62
2022/01/04 06:40:14;;;;;;;2.15;0.90;;;;;;;8.40;90.06;95654.00;5015234;28;20049;-62
2022/01/04 06:42:40;;;;;;;4.72;0.90;;;;;;;8.44;89.82;95650.44;5016187;28;20060;-62
2022/01/04 06:45:08;;;;;;;1.85;0.85;;;;;;;8.52;89.42;95653.63;5014451;28;20389;-61
2022/01/04 06:47:35;;;;;;;1.48;0.60;;;;;;;8.57;89.24;95646.34;5015308;28;20065;-62
2022/01/04 06:50:02;;;;;;;3.13;0.82;;;;;;;8.63;89.17;95641.72;5016205;28;20038;-62
2022/01/04 06:52:29;;;;;;;1.83;0.73;;;;;;;8.63;89.10;95643.59;5018635;28;20081;-61
2022/01/04 06:54:55;;;;;;;1.25;0.70;;;;;;;8.75;88.64;95641.34;5014158;28;20053;-63
2022/01/04 06:57:22;;;;;;;0.85;0.50;;;;;;;8.80;88.47;95644.00;5020823;28;20050;-62
2022/01/04 06:59:49;;;;;;;1.85;0.80;;;;;;;8.77;89.18;95641.84;5025060;28;20049;-62
2022/01/04 07:02:16;;;;;;;2.30;0.90;;;;;;;8.74;89.35;95637.03;5022140;28;20045;-62
2022/01/04 07:04:42;;;;;;;1.08;0.68;;;;;;;8.75;89.43;95632.44;5024153;28;20034;-62
2022/01/04 07:07:09;;;;;;;1.83;0.80;;;;;;;8.76;89.26;95626.75;5024896;28;20398;-62
2022/01/04 07:09:36;;;;;;;2.05;0.70;;;;;;;8.76;89.32;95626.75;5024790;28;20107;-63
2022/01/04 07:12:03;;;;;;;1.88;0.73;;;;;;;8.73;89.84;95626.53;5020722;28;20045;-62
2022/01/04 07:14:29;;;;;;;2.40;0.70;;;;;;;8.69;90.02;95619.00;5023370;28;20087;-62
2022/01/04 07:16:56;;;;;;;0.82;0.55;;;;;;;8.67;90.12;95618.47;5015352;28;20037;-62
2022/01/04 07:19:23;;;;;;;1.35;0.70;;;;;;;8.68;90.24;95609.28;5025440;28;20052;-62
2022/01/04 07:21:49;;;;;;;2.22;0.70;;;;;;;8.70;90.21;95607.09;5035033;28;20051;-63
2022/01/04 07:24:16;;;;;;;1.83;0.75;;;;;;;8.76;90.19;95607.88;5039014;28;20056;-62
2022/01/04 07:26:42;;;;;;;2.08;0.70;;;;;;;8.77;90.12;95612.16;5026848;28;20041;-62
2022/01/04 07:29:09;;;;;;;1.45;0.60;;;;;;;8.79;90.16;95609.19;5020554;28;20104;-62
2022/01/04 07:31:36;;;;;;;1.73;0.80;;;;;;;8.83;90.15;95610.22;5038914;28;20583;-62
2022/01/04 07:34:03;;;;;;;1.98;0.82;;;;;;;8.86;89.96;95598.88;5041203;28;20041;-62
2022/01/04 07:36:31;;;;;;;2.50;0.75;;;;;;;8.94;89.60;95600.97;5038193;28;20045;-62
2022/01/04 07:38:58;;;;;;;1.90;0.75;;;;;;;8.97;89.53;95597.69;5027676;28;20069;-64
2022/01/04 07:41:25;;;;;;;1.67;0.60;;;;;;;9.03;89.35;95592.25;5025561;28;20168;-64
2022/01/04 07:43:52;;;;;;;3.05;0.93;;;;;;;9.10;88.91;95593.50;5026224;28;20053;-64
2022/01/04 07:46:19;;;;;;;2.65;0.70;;;;;;;9.10;88.93;95581.88;5029824;28;20049;-64
2022/01/04 07:48:49;;;;;;;2.17;0.80;;;;;;;9.15;88.96;95583.75;5039004;28;20049;-65
2022/01/04 07:51:16;;;;;;;1.15;0.43;;;;;;;9.26;88.25;95584.44;5025180;28;21029;-65
2022/01/04 07:53:42;;;;;;;2.92;0.90;;;;;;;9.29;88.21;95575.75;5025526;28;20256;-65
2022/01/04 07:56:09;;;;;;;1.77;0.60;;;;;;;9.35;88.20;95563.78;5019575;28;20045;-65
2022/01/04 07:58:36;;;;;;;1.75;0.65;;;;;;;9.45;87.57;95558.28;5027210;28;20045;-64
2022/01/04 08:01:03;;;;;;;1.08;0.50;;;;;;;9.42;87.81;95545.34;5036254;28;20049;-65
2022/01/04 08:03:30;;;;;;;0.95;0.40;;;;;;;9.45;87.66;95565.56;5039772;28;20513;-64
2022/01/04 08:05:57;;;;;;;1.33;0.60;;;;;;;9.49;87.51;95572.81;5026876;28;20500;-64
2022/01/04 08:08:23;;;;;;;1.58;0.70;;;;;;;9.49;87.78;95575.53;5028218;28;20698;-65
2022/01/04 08:10:51;;;;;;;1.45;0.80;;;;;;;9.50;87.62;95582.53;5033560;28;20132;-64
2022/01/04 08:13:19;;;;;;;3.33;0.70;;;;;;;9.53;87.52;95561.41;5031686;28;20504;-65
2022/01/04 08:15:46;;;;;;;1.73;0.80;;;;;;;9.55;87.47;95572.75;5034821;28;20049;-64
2022/01/04 08:18:13;;;;;;;0.95;0.70;;;;;;;9.56;87.46;95555.44;5042616;28;20037;-64
2022/01/04 08:20:40;;;;;;;1.00;0.60;;;;;;;9.60;87.40;95553.75;5044714;28;20060;-64
2022/01/04 08:23:12;;;;;;;1.92;0.70;;;;;;;9.62;87.38;95557.00;5030093;28;20059;-65
2022/01/04 08:25:39;;;;;;;2.65;0.60;;;;;;;9.59;87.88;95554.88;5031568;28;20037;-65
2022/01/04 08:28:06;;;;;;;3.13;0.80;;;;;;;9.57;87.93;95562.44;5024330;28;20056;-64
2022/01/04 08:30:33;;;;;;;1.75;0.73;;;;;;;9.61;87.95;95558.06;5017372;28;20091;-64
2022/01/04 08:33:00;;;;;;;0.77;0.45;;;;;;;9.65;87.83;95558.31;5024334;28;20034;-65
2022/01/04 08:35:27;;;;;;;1.85;0.60;;;;;;;9.63;87.89;95564.78;5026039;28;20082;-64
2022/01/04 08:37:54;;;;;;;1.60;0.70;;;;;;;9.65;88.15;95558.31;5030055;28;20056;-65
2022/01/04 08:40:21;;;;;;;2.17;0.95;;;;;;;9.65;87.98;95561.78;5025306;28;20046;-65
2022/01/04 08:42:48;;;;;;;2.67;0.80;;;;;;;9.66;87.98;95549.09;5029797;28;20527;-65
2022/01/04 08:45:15;;;;;;;1.77;0.70;;;;;;;9.61;88.23;95545.38;5033553;28;20277;-65
2022/01/04 08:47:42;;;;;;;3.13;0.80;;;;;;;9.68;88.03;95530.69;5028947;28;20305;-64
2022/01/04 08:50:11;;;;;;;1.38;0.60;;;;;;;9.63;88.24;95535.06;5029780;28;20167;-64
2022/01/04 08:52:38;;;;;;;3.22;0.68;;;;;;;9.69;87.82;95537.72;5025980;28;20073;-65
2022/01/04 08:55:06;;;;;;;1.05;0.50;;;;;;;9.76;87.40;95536.25;5025480;28;20068;-64
2022/01/04 08:57:33;;;;;;;3.72;0.60;;;;;;;9.92;86.17;95529.81;5026630;28;20092;-64
2022/01/04 09:00:00;;;;;;;2.70;0.60;;;;;;;9.88;86.47;95530.38;5026183;28;20056;-64
2022/01/04 09:02:27;;;;;;;2.60;0.80;;;;;;;9.94;86.27;95528.41;5027482;28;20037;-64
2022/01/04 09:04:55;;;;;;;2.05;0.63;;;;;;;9.93;86.09;95523.31;5029367;28;20099;-65
2022/01/04 09:07:21;;;;;;;1.52;0.80;;;;;;;9.91;86.49;95520.88;5026473;28;20049;-64
2022/01/04 09:09:49;;;;;;;2.00;0.80;;;;;;;9.90;86.49;95516.59;5019196;28;20041;-64
2022/01/04 09:12:35;;;;;;;1.40;0.70;;;;;;;9.93;86.28;95521.41;5021344;28;20047;-64
2022/01/04 09:20:42;;;;;;;2.40;0.80;;;;;;;10.19;85.19;95491.28;5023776;28;20041;-54
2022/01/04 09:23:09;;;;;;;3.30;0.80;;;;;;;10.30;84.88;95502.72;5022598;28;20041;-59
2022/01/04 09:25:37;;;;;;;2.50;0.80;;;;;;;10.47;85.11;95491.34;5019925;28;20041;-58
2022/01/04 09:28:09;;;;;;;2.05;0.70;;;;;;;10.54;83.52;95480.94;5023194;28;20116;-56
2022/01/04 09:30:35;;;;;;;1.42;0.50;;;;;;;10.47;83.85;95487.84;5023131;28;20053;-57
2022/01/04 09:33:05;;;;;;;1.60;0.60;;;;;;;10.38;84.39;95479.59;5024430;28;20512;-60
2022/01/04 09:35:33;;;;;;;2.13;0.80;;;;;;;10.39;84.92;95479.28;5023720;28;20042;-54
2022/01/04 09:38:00;;;;;;;3.05;0.90;;;;;;;10.30;85.13;95494.59;5014056;28;20057;-56
2022/01/04 09:40:26;;;;;;;1.15;0.68;;;;;;;10.48;84.49;95492.16;5016329;28;20052;-58
2022/01/04 09:42:54;;;;;;;2.97;0.68;;;;;;;10.45;84.30;95500.88;5015222;28;20501;-54
2022/01/04 09:45:21;;;;;;;0.63;0.50;;;;;;;10.39;84.15;95506.34;5017470;28;20107;-58
2022/01/04 09:47:48;;;;;;;2.30;0.90;;;;;;;10.41;84.31;95517.69;5017107;28;20045;-56
2022/01/04 09:50:15;;;;;;;2.35;0.95;;;;;;;10.45;84.55;95504.38;5017722;28;20042;-60
2022/01/04 09:52:47;;;;;;;2.47;0.85;;;;;;;10.43;84.68;95501.13;5015144;28;20064;-58
2022/01/04 09:55:15;;;;;;;2.33;0.82;;;;;;;10.46;85.28;95508.69;5015658;28;20105;-56
2022/01/04 09:57:44;;;;;;;1.85;0.98;;;;;;;10.41;84.68;95498.75;5015781;28;20048;-55
2022/01/04 10:00:14;;;;;;;2.10;0.80;;;;;;;10.26;85.60;95507.94;5013619;28;20045;-53
2022/01/04 10:02:43;;;;;;;4.20;0.90;;;;;;;10.13;86.13;95495.13;5023213;28;20055;-60
2022/01/04 10:05:23;;;;;;;2.40;0.70;;;;;;;10.00;86.96;95494.00;5024161;28;20064;-63
2022/01/04 10:08:01;;;;;;;1.52;0.60;;;;;;;10.04;86.49;95469.88;5027946;28;20041;-64
2022/01/04 10:10:28;;;;;;;2.50;0.80;;;;;;;9.94;87.34;95462.72;5014072;28;21667;-62
2022/01/04 10:13:00;;;;;;;3.17;1.13;;;;;;;9.97;87.25;95459.44;5013255;28;20037;-62
2022/01/04 10:15:44;;;;;;;2.13;0.90;;;;;;;10.05;87.12;95463.34;5022832;28;20041;-64
2022/01/04 10:18:14;;;;;;;2.38;0.80;;;;;;;9.99;87.56;95465.38;5022056;28;20049;-64
2022/01/04 10:20:53;;;;;;;1.92;0.68;;;;;;;9.96;87.45;95460.53;5021388;28;20128;-63
2022/01/04 10:23:25;;;;;;;4.47;0.90;;;;;;;10.05;87.37;95475.00;5021655;28;20724;-61
2022/01/04 10:26:01;;;;;;;2.08;0.93;;;;;;;10.00;87.67;95472.38;5015424;28;20244;-64
2022/01/04 10:28:30;;;;;;;1.90;0.80;;;;;;;10.01;87.79;95465.88;5022095;28;20052;-63
2022/01/04 10:31:10;;;;;;;2.03;0.77;;;;;;;10.03;87.41;95444.75;5022781;28;20045;-63
2022/01/04 10:33:38;;;;;;;2.88;0.85;;;;;;;10.11;87.39;95440.56;5017267;28;20125;-63
2022/01/04 10:36:13;;;;;;;2.25;0.85;;;;;;;10.16;87.33;95451.28;5003831;28;20124;-62
2022/01/04 10:38:43;;;;;;;1.52;0.70;;;;;;;10.14;87.50;95450.78;5022060;28;20041;-62
2022/01/04 10:41:15;;;;;;;2.33;0.90;;;;;;;10.20;87.17;95449.59;5023387;28;20053;-64
2022/01/04 10:43:47;;;;;;;2.88;0.80;;;;;;;10.20;87.49;95438.78;5019405;28;20379;-63
2022/01/04 10:46:22;;;;;;;2.03;0.93;;;;;;;10.13;87.61;95432.94;5021505;28;20033;-63
2022/01/04 10:48:50;;;;;;;1.95;0.70;;;;;;;10.18;86.67;95435.56;5015082;28;20037;-62
2022/01/04 10:51:21;;;;;;;2.28;0.90;;;;;;;10.18;87.17;95446.41;5014740;28;20497;-62
2022/01/04 10:53:51;;;;;;;2.80;1.20;;;;;;;10.25;86.33;95441.38;5023188;28;20041;-63
2022/01/04 10:56:31;;;;;;;2.95;1.30;;;;;;;10.37;85.49;95434.69;5024070;28;20048;-64
2022/01/04 10:59:01;;;;;;;3.00;0.80;;;;;;;10.36;85.87;95446.63;5022689;28;20508;-63
2022/01/04 11:01:37;;;;;;;2.67;0.90;;;;;;;10.34;85.73;95438.00;5024669;28;20072;-62
2022/01/04 11:04:14;;;;;;;2.33;0.95;;;;;;;10.33;85.72;95430.97;5020344;28;20080;-63
2022/01/04 11:06:42;;;;;;;3.63;0.95;;;;;;;10.32;86.06;95442.91;5021526;28;20037;-63
2022/01/04 11:09:10;;;;;;;4.38;0.82;;;;;;;10.37;85.63;95437.41;5017331;28;20053;-63
2022/01/04 11:11:39;;;;;;;2.33;0.98;;;;;;;10.32;85.75;95441.00;5016721;28;20052;-63
2022/01/04 11:14:08;;;;;;;2.22;1.10;;;;;;;10.34;86.02;95438.00;5016912;28;20516;-63
2022/01/04 11:16:35;;;;;;;1.83;0.70;;;;;;;10.29;85.87;95430.78;5019527;28;20123;-62
2022/01/04 11:19:03;;;;;;;1.83;0.95;;;;;;;10.30;85.71;95434.28;5021958;28;20972;-64
2022/01/04 11:21:34;;;;;;;2.35;1.15;;;;;;;10.27;86.07;95425.69;5026593;28;20049;-63
2022/01/04 11:24:04;;;;;;;2.80;1.10;;;;;;;10.21;86.24;95418.72;5024501;28;20041;-62
2022/01/04 11:26:32;;;;;;;3.63;0.93;;;;;;;10.21;86.14;95417.94;5022732;28;20044;-61
2022/01/04 11:28:59;;;;;;;2.10;1.08;;;;;;;10.25;85.86;95414.34;5025856;28;20069;-61
2022/01/04 11:31:47;;;;;;;2.40;1.10;;;;;;;10.21;86.08;95413.31;5026283;28;20081;-63
2022/01/04 11:34:35;;;;;;;2.80;1.10;;;;;;;10.18;86.51;95422.06;5022591;28;20129;-64
2022/01/04 11:37:03;;;;;;;1.95;0.80;;;;;;;10.26;86.13;95418.66;5008604;28;20128;-63
2022/01/04 11:39:35;;;;;;;3.08;1.25;;;;;;;10.13;86.15;95420.22;5028372;28;20496;-63
2022/01/04 11:42:08;;;;;;;1.95;0.88;;;;;;;10.17;86.43;95425.84;5032327;28;20107;-62
2022/01/04 11:44:46;;;;;;;4.03;0.95;;;;;;;10.12;86.37;95421.34;5032684;28;20524;-62
2022/01/04 11:47:25;;;;;;;2.05;0.93;;;;;;;10.12;86.17;95426.75;5025173;28;20052;-62
2022/01/04 11:50:16;;;;;;;3.63;1.13;;;;;;;10.08;85.89;95408.69;5035858;28;20124;-60
2022/01/04 11:52:49;;;;;;;3.17;1.10;;;;;;;10.20;85.48;95414.44;5039088;28;20129;-62
2022/01/04 11:55:31;;;;;;;3.50;1.33;;;;;;;10.20;85.80;95422.53;5024840;28;20053;-61
2022/01/04 11:58:02;;;;;;;;;;;;;;;10.18;85.96;95416.66;5026802;28;20548;-61